Time;durP1;ratioP1;P1;durP2;ratioP2;P2;SDS_P1;SDS_P2;PMS_P1;PMS_P2;Temp;Humidity;BMP_temperature;BMP_pressure;BME280_temperature;BME280_humidity;BME280_pressure;Samples;Min_cycle;Max_cycle;Signal;HPM_P1;HPM_P2
2021/09/01 00:04:08;;;;;;;8.00;7.30;;;;;;;16.34;96.62;96366.84;4911366;29;20232;-89
2021/09/01 00:10:14;;;;;;;7.55;6.85;;;;;;;16.31;96.34;96369.81;4978818;28;20578;-89
2021/09/01 00:28:28;;;;;;;7.75;7.05;;;;;;;16.22;96.11;96375.16;4939235;29;20277;-89
2021/09/01 00:31:39;;;;;;;7.75;7.05;;;;;;;16.16;96.46;96377.75;4999195;28;20440;-88
2021/09/01 00:34:54;;;;;;;9.05;8.23;;;;;;;16.19;95.78;96380.75;5008339;28;20213;-89
2021/09/01 00:38:11;;;;;;;8.50;7.70;;;;;;;16.14;95.47;96380.53;5000668;28;20206;-89
2021/09/01 00:41:47;;;;;;;;;;;;;;;;;;;;;
2021/09/01 00:44:48;;;;;;;9.05;8.25;;;;;;;16.08;95.24;96383.09;5008452;28;20195;-87
2021/09/01 00:47:17;;;;;;;9.32;8.52;;;;;;;16.01;95.86;96379.63;5008347;28;20208;-89
2021/09/01 00:49:44;;;;;;;11.85;7.82;;;;;;;15.94;96.99;96395.19;5017124;28;20285;-88
2021/09/01 00:52:10;;;;;;;9.20;8.45;;;;;;;15.92;96.67;96391.19;5027997;28;20293;-89
2021/09/01 00:55:00;;;;;;;8.32;7.63;;;;;;;15.89;96.18;96393.16;5028244;28;20194;-89
2021/09/01 00:57:27;;;;;;;8.88;7.97;;;;;;;15.93;95.38;96396.19;5012628;28;20234;-89
2021/09/01 01:05:36;;;;;;;8.63;7.82;;;;;;;15.69;97.23;96388.81;4994850;28;20257;-88
2021/09/01 01:11:45;;;;;;;8.68;7.80;;;;;;;15.79;95.81;96394.47;5005891;28;20246;-88
2021/09/01 01:14:27;;;;;;;8.55;7.85;;;;;;;15.79;95.24;96391.88;5003131;28;20202;-88
2021/09/01 01:17:15;;;;;;;7.93;7.23;;;;;;;15.72;94.60;96389.25;5011661;28;20280;-88
2021/09/01 01:19:53;;;;;;;8.87;7.97;;;;;;;15.73;94.54;96388.25;5011490;28;20775;-87
2021/09/01 01:25:44;;;;;;;8.60;7.55;;;;;;;15.48;96.00;96382.63;4952446;28;20681;-88
2021/09/01 01:31:03;;;;;;;8.65;7.80;;;;;;;15.43;96.89;96390.16;4984023;28;20230;-88
2021/09/01 01:33:34;;;;;;;8.27;7.57;;;;;;;15.42;96.36;96396.34;5011263;28;20199;-88
2021/09/01 01:36:11;;;;;;;;;;;;;;;;;;;;;
2021/09/01 01:38:44;;;;;;;8.75;7.93;;;;;;;15.47;96.71;96390.59;5010474;28;20198;-87
2021/09/01 01:41:12;;;;;;;8.67;7.87;;;;;;;15.50;95.38;96393.63;5011613;28;20235;-87
2021/09/01 01:43:50;;;;;;;9.10;8.20;;;;;;;15.42;95.84;96395.53;5011556;28;20238;-88
2021/09/01 01:46:21;;;;;;;9.30;8.40;;;;;;;15.36;96.83;96404.09;5011600;28;20199;-88
2021/09/01 01:48:49;;;;;;;8.17;7.47;;;;;;;15.34;96.30;96400.88;5010986;28;20203;-88
2021/09/01 01:51:20;;;;;;;8.07;7.38;;;;;;;15.33;96.33;96405.25;5011460;28;20310;-88
2021/09/01 01:53:48;;;;;;;8.38;7.57;;;;;;;15.43;95.26;96395.34;5011546;28;20199;-87
2021/09/01 01:56:16;;;;;;;8.60;7.50;;;;;;;15.38;95.29;96395.13;5010315;28;20229;-88
2021/09/01 01:58:55;;;;;;;8.48;7.63;;;;;;;15.31;95.86;96396.84;5010907;28;20298;-88
2021/09/01 02:01:25;;;;;;;7.93;6.93;;;;;;;15.33;95.12;96399.25;5011211;28;20222;-88
2021/09/01 02:03:57;;;;;;;10.53;7.77;;;;;;;15.31;94.62;96396.84;5011348;28;20213;-87
2021/09/01 02:06:30;;;;;;;8.07;7.38;;;;;;;15.30;94.64;96394.44;5011537;28;20191;-88
2021/09/01 02:08:57;;;;;;;8.52;7.82;;;;;;;15.18;95.51;96394.16;5010469;28;20194;-88
2021/09/01 02:11:27;;;;;;;8.65;7.85;;;;;;;15.23;95.38;96388.38;5010867;28;20222;-88
2021/09/01 02:13:55;;;;;;;8.50;7.70;;;;;;;15.27;94.83;96394.81;5011297;28;20822;-88
2021/09/01 02:16:23;;;;;;;8.70;7.73;;;;;;;15.20;95.13;96394.75;5006712;28;20751;-88
2021/09/01 02:18:50;;;;;;;8.40;7.33;;;;;;;15.20;95.06;96397.34;5000953;28;20278;-86
2021/09/01 02:21:17;;;;;;;7.53;6.90;;;;;;;15.25;94.34;96401.97;4990955;28;20235;-87
2021/09/01 02:23:43;;;;;;;7.93;7.13;;;;;;;15.25;94.25;96397.59;4991304;28;20674;-87
2021/09/01 02:26:12;;;;;;;8.50;7.80;;;;;;;15.15;93.85;96404.88;4990785;28;20227;-88
2021/09/01 02:28:45;;;;;;;8.50;7.70;;;;;;;15.21;93.96;96404.94;4991063;28;20207;-86
2021/09/01 02:31:32;;;;;;;8.50;7.70;;;;;;;15.25;93.15;96409.75;4990794;28;20223;-88
2021/09/01 02:34:04;;;;;;;7.33;6.63;;;;;;;15.12;93.03;96407.84;4999051;28;20199;-88
2021/09/01 02:36:40;;;;;;;7.50;6.80;;;;;;;15.05;93.32;96406.97;5010838;28;20217;-88
2021/09/01 02:39:07;;;;;;;8.13;7.43;;;;;;;15.06;93.93;96403.38;5009849;28;20576;-88
2021/09/01 02:41:38;;;;;;;7.80;7.10;;;;;;;15.09;93.47;96408.22;5010230;28;20698;-87
2021/09/01 02:44:25;;;;;;;8.03;7.33;;;;;;;15.10;93.26;96402.03;5010194;28;20202;-88
2021/09/01 02:47:00;;;;;;;8.20;7.40;;;;;;;15.18;93.10;96394.94;5010159;28;20199;-87
2021/09/01 02:49:31;;;;;;;7.10;6.40;;;;;;;15.25;92.07;96400.19;5009904;28;20728;-87
2021/09/01 02:52:00;;;;;;;8.07;7.27;;;;;;;15.24;91.54;96401.16;5010210;28;20231;-88
2021/09/01 02:54:30;;;;;;;7.47;6.83;;;;;;;15.19;91.74;96409.53;5009952;28;20269;-88
2021/09/01 02:57:02;;;;;;;7.90;7.20;;;;;;;15.19;92.29;96409.53;5000998;28;20245;-88
2021/09/01 02:59:30;;;;;;;7.67;6.93;;;;;;;15.14;92.43;96406.69;5009967;28;20198;-88
2021/09/01 03:05:04;;;;;;;8.10;7.40;;;;;;;15.04;93.31;96400.97;5002832;28;20261;-88
2021/09/01 03:07:35;;;;;;;7.97;7.27;;;;;;;15.07;93.45;96405.78;5010327;28;20289;-87
2021/09/01 03:10:03;;;;;;;7.90;7.20;;;;;;;15.10;93.06;96402.03;5009568;28;20674;-88
2021/09/01 03:12:48;;;;;;;7.47;6.77;;;;;;;15.04;92.31;96395.78;5010000;28;20237;-88
2021/09/01 03:15:25;;;;;;;8.40;7.50;;;;;;;15.04;92.65;96400.16;5009386;28;20285;-87
2021/09/01 03:18:15;;;;;;;7.57;6.87;;;;;;;15.09;92.34;96403.81;4990295;28;20342;-88
2021/09/01 03:20:49;;;;;;;7.47;6.78;;;;;;;15.02;92.18;96400.34;4989809;28;20224;-87
2021/09/01 03:23:16;;;;;;;7.37;6.77;;;;;;;15.05;92.28;96402.56;4989997;28;20227;-87
2021/09/01 03:25:51;;;;;;;7.60;6.80;;;;;;;15.05;92.27;96399.19;4989651;28;20282;-88
2021/09/01 03:28:23;;;;;;;7.70;6.90;;;;;;;15.07;91.54;96400.59;4989587;28;20273;-87
2021/09/01 03:30:57;;;;;;;7.27;6.67;;;;;;;15.04;91.15;96400.97;4989437;28;20699;-86
2021/09/01 03:33:30;;;;;;;7.40;6.70;;;;;;;15.03;90.42;96403.75;4993937;28;20201;-88
2021/09/01 03:36:20;;;;;;;7.53;6.87;;;;;;;15.01;90.85;96400.56;5009375;28;20206;-88
2021/09/01 03:38:47;;;;;;;7.73;6.93;;;;;;;14.94;90.87;96407.44;5003870;28;20268;-88
2021/09/01 03:41:19;;;;;;;7.87;7.17;;;;;;;14.98;90.78;96399.13;5009118;28;20215;-87
2021/09/01 03:43:57;;;;;;;7.50;6.87;;;;;;;14.97;90.53;96407.09;5009714;28;20209;-88
2021/09/01 03:46:33;;;;;;;8.00;7.30;;;;;;;15.01;90.07;96405.75;5009226;28;20245;-87
2021/09/01 03:52:01;;;;;;;9.00;6.97;;;;;;;15.04;89.10;96415.72;5007340;28;20387;-87
2021/09/01 03:54:31;;;;;;;7.63;6.90;;;;;;;14.97;88.82;96423.47;5009125;28;20294;-87
2021/09/01 03:57:02;;;;;;;7.30;6.60;;;;;;;14.86;88.72;96421.31;4996443;28;20719;-87
2021/09/01 03:59:34;;;;;;;7.83;6.60;;;;;;;14.81;89.47;96423.69;4989236;28;20294;-88
2021/09/01 04:02:05;;;;;;;7.33;6.63;;;;;;;14.73;89.03;96421.97;5003337;28;20231;-88
2021/09/01 04:04:46;;;;;;;7.33;6.63;;;;;;;14.70;89.90;96432.72;5009189;28;20206;-90
2021/09/01 04:07:24;;;;;;;6.67;6.07;;;;;;;14.71;89.92;96428.34;5008887;28;20206;-88
2021/09/01 04:10:19;;;;;;;7.10;6.50;;;;;;;14.66;89.43;96433.25;5007787;28;20551;-88
2021/09/01 04:12:58;;;;;;;7.10;6.50;;;;;;;14.64;89.68;96430.81;4999494;28;20205;-88
2021/09/01 04:15:38;;;;;;;7.37;6.67;;;;;;;14.57;89.96;96432.56;5009207;28;20194;-87
2021/09/01 04:18:08;;;;;;;7.73;6.10;;;;;;;14.58;90.27;96431.56;5009048;28;20685;-88
2021/09/01 04:21:15;;;;;;;6.70;6.10;;;;;;;14.56;89.61;96432.72;5009641;28;20597;-88
2021/09/01 04:23:42;;;;;;;7.10;6.40;;;;;;;14.61;90.25;96435.59;5006316;28;20202;-87
2021/09/01 04:26:09;;;;;;;6.73;6.13;;;;;;;14.64;89.03;96438.59;5008988;28;20300;-88
2021/09/01 04:28:41;;;;;;;6.27;5.70;;;;;;;14.67;88.67;96443.44;5000612;28;20673;-88
2021/09/01 04:31:13;;;;;;;6.10;5.50;;;;;;;14.72;88.62;96440.31;4988910;28;20284;-89
2021/09/01 04:33:57;;;;;;;5.97;5.37;;;;;;;14.71;87.95;96441.28;4999945;28;20198;-87
2021/09/01 04:36:35;;;;;;;5.53;5.13;;;;;;;14.72;87.97;96435.13;5008659;28;20244;-87
2021/09/01 04:42:11;;;;;;;;;;;;;;;;;;;;;
2021/09/01 04:48:06;;;;;;;5.50;5.00;;;;;;;14.69;86.95;96431.09;4988957;28;20276;-88
2021/09/01 04:50:36;;;;;;;5.07;4.57;;;;;;;14.63;86.63;96421.44;5010381;28;20241;-87
2021/09/01 04:53:30;;;;;;;4.83;4.40;;;;;;;14.63;86.67;96431.81;5012491;28;20260;-88
2021/09/01 04:56:16;;;;;;;5.20;4.60;;;;;;;14.61;86.13;96430.41;5009029;28;20203;-87
2021/09/01 04:58:45;;;;;;;14.73;13.23;;;;;;;14.58;86.26;96435.94;5010885;28;20284;-88
2021/09/01 05:01:11;;;;;;;10.90;9.90;;;;;;;14.57;86.80;96432.56;5012149;28;20226;-89
2021/09/01 05:03:38;;;;;;;8.60;6.83;;;;;;;14.57;87.43;96439.53;5012563;28;20625;-88
2021/09/01 05:06:47;;;;;;;;;;;;;;;;;;;;;
2021/09/01 05:18:51;;;;;;;4.90;4.50;;;;;;;14.55;87.73;96451.84;4981367;28;20844;-89
2021/09/01 05:21:28;;;;;;;5.40;4.90;;;;;;;14.60;87.21;96445.16;5011931;28;20706;-88
2021/09/01 05:24:01;;;;;;;4.90;4.50;;;;;;;14.62;86.82;96450.97;5011636;28;20194;-89
2021/09/01 05:26:37;;;;;;;4.93;4.37;;;;;;;14.67;86.49;96450.41;5011797;28;20292;-89
2021/09/01 05:29:31;;;;;;;4.27;3.93;;;;;;;14.62;86.39;96450.97;5011719;28;20699;-89
2021/09/01 05:32:15;;;;;;;5.10;4.60;;;;;;;14.62;86.88;96455.34;5011348;28;20428;-89
2021/09/01 05:35:00;;;;;;;5.17;4.77;;;;;;;14.62;86.99;96458.75;5011991;28;20585;-89
2021/09/01 05:44:03;;;;;;;4.97;4.53;;;;;;;14.85;86.02;96456.81;5011378;28;20309;-88
2021/09/01 05:46:36;;;;;;;4.47;4.07;;;;;;;14.92;86.19;96456.09;5011861;28;20563;-89
2021/09/01 05:52:45;;;;;;;4.90;4.50;;;;;;;14.96;86.69;96455.56;4918674;28;20206;-89
2021/09/01 06:06:09;;;;;;;;;;;;;;;;;;;;;
2021/09/01 06:12:17;;;;;;;6.47;5.30;;;;;;;15.30;86.16;96449.75;5008886;28;20265;-89
2021/09/01 06:15:34;;;;;;;5.47;4.87;;;;;;;15.33;86.68;96446.78;5010536;28;20199;-89
2021/09/01 06:21:09;;;;;;;5.50;5.03;;;;;;;15.46;87.84;96451.28;5009228;28;20653;-89
2021/09/01 06:23:51;;;;;;;6.40;5.80;;;;;;;15.46;88.54;96459.88;5010144;28;20250;-90
2021/09/01 06:26:37;;;;;;;7.60;5.50;;;;;;;15.56;88.25;96457.00;5011893;28;20218;-89
2021/09/01 06:32:28;;;;;;;6.57;5.90;;;;;;;15.60;91.31;96466.00;4999580;28;20229;-88
2021/09/01 06:41:12;;;;;;;6.43;5.90;;;;;;;15.82;90.29;96466.81;5006482;28;20226;-89
2021/09/01 06:44:05;;;;;;;6.32;5.72;;;;;;;15.95;89.37;96473.91;5010166;28;20223;-90
2021/09/01 06:46:48;;;;;;;6.38;5.78;;;;;;;16.03;89.29;96476.38;5010555;28;20211;-89
2021/09/01 06:49:31;;;;;;;7.13;6.40;;;;;;;16.14;88.90;96471.47;5010314;28;20277;-87
2021/09/01 06:52:33;;;;;;;7.22;6.15;;;;;;;16.22;89.61;96470.50;5010182;28;20229;-89
2021/09/01 06:55:13;;;;;;;10.32;6.88;;;;;;;16.37;88.78;96478.19;5009978;28;20210;-89
2021/09/01 06:57:58;;;;;;;6.95;6.25;;;;;;;16.44;89.73;96479.06;4999012;28;20256;-88
2021/09/01 07:00:48;;;;;;;6.30;5.70;;;;;;;16.57;89.68;96477.31;5009261;28;20222;-89
2021/09/01 07:07:04;;;;;;;;;;;;;;;;;;;;;
2021/09/01 07:09:48;;;;;;;6.93;5.75;;;;;;;17.13;86.30;96476.41;5010363;28;20202;-89
2021/09/01 07:12:25;;;;;;;7.20;6.50;;;;;;;17.23;85.80;96492.47;4990360;28;20573;-89
2021/09/01 07:15:17;;;;;;;;;;;;;;;;;;;;;
2021/09/01 07:21:17;;;;;;;6.88;6.28;;;;;;;17.54;83.30;96489.31;4955070;28;20226;-88
2021/09/01 07:33:38;;;;;;;6.40;5.80;;;;;;;18.24;78.11;96501.84;4947141;28;20200;-88
2021/09/01 07:53:34;;;;;;;6.88;6.28;;;;;;;18.96;71.29;96521.78;4831193;29;20223;-87
2021/09/01 08:08:47;;;;;;;7.55;6.85;;;;;;;18.65;72.30;96533.94;4965002;28;20929;-88
2021/09/01 08:11:27;;;;;;;7.57;6.88;;;;;;;18.52;72.28;96543.31;4954014;28;20787;-89
2021/09/01 08:17:51;;;;;;;7.35;6.15;;;;;;;18.16;74.24;96540.34;4828229;29;20943;-89
2021/09/01 08:20:43;;;;;;;;;;;;;;;;;;;;;
2021/09/01 08:23:45;;;;;;;7.00;6.30;;;;;;;18.64;70.77;96540.94;4984888;28;20231;-88
2021/09/01 08:26:12;;;;;;;8.70;5.90;;;;;;;18.54;71.95;96546.53;4992887;28;20214;-89
2021/09/01 08:28:59;;;;;;;6.80;6.13;;;;;;;18.48;72.16;96549.13;4993462;28;20207;-89
2021/09/01 08:31:39;;;;;;;6.47;5.90;;;;;;;18.38;73.02;96552.16;5047791;23;20237;-89
2021/09/01 08:41:17;;;;;;;6.68;5.80;;;;;;;18.35;71.93;96547.34;5024291;28;20272;-90
2021/09/01 08:43:56;;;;;;;6.53;5.85;;;;;;;18.46;71.34;96548.56;5033028;28;20283;-89
2021/09/01 08:46:45;;;;;;;7.05;6.45;;;;;;;18.19;72.26;96553.78;5033956;28;20206;-89
2021/09/01 08:53:30;;;;;;;;;;;;;;;;;;;;;
2021/09/01 08:59:35;;;;;;;6.38;5.88;;;;;;;19.47;65.87;96548.91;4905652;29;20282;-89
2021/09/01 09:02:06;;;;;;;5.70;5.20;;;;;;;20.00;64.24;96544.22;4974887;28;20317;-89
2021/09/01 09:08:31;;;;;;;5.72;5.05;;;;;;;19.97;61.54;96544.63;5041529;28;20210;-89
2021/09/01 09:14:21;;;;;;;6.30;5.30;;;;;;;19.61;63.66;96540.84;5038533;28;20202;-89
2021/09/01 09:23:03;;;;;;;6.22;5.72;;;;;;;18.84;64.84;96536.50;5062672;23;20253;-90
2021/09/01 09:26:35;;;;;;;5.97;5.47;;;;;;;18.66;62.49;96533.72;5009112;28;20219;-90
2021/09/01 09:45:12;;;;;;;;;;;;;;;;;;;;;
2021/09/01 09:48:40;;;;;;;4.78;4.43;;;;;;;21.04;53.33;96523.34;5011021;28;20763;-89
2021/09/01 09:51:59;;;;;;;;;;;;;;;;;;;;;
2021/09/01 09:54:59;;;;;;;3.85;3.42;;;;;;;21.60;50.10;96513.59;5012155;28;20206;-89
2021/09/01 10:03:35;;;;;;;4.05;3.75;;;;;;;21.87;48.08;96517.47;5006413;28;20237;-88
2021/09/01 10:06:27;;;;;;;4.45;4.05;;;;;;;22.01;47.11;96520.72;5011412;28;20195;-88
2021/09/01 10:09:15;;;;;;;;;;;;;;;;;;;;;
2021/09/01 10:14:56;;;;;;;5.40;4.72;;;;;;;22.35;49.26;96519.94;5017833;28;20740;-90
2021/09/01 10:20:46;;;;;;;4.93;4.53;;;;;;;22.10;50.79;96526.44;4969056;28;20231;-89
2021/09/01 10:29:38;;;;;;;4.57;3.53;;;;;;;22.29;47.71;96520.88;5027765;28;20287;-89
2021/09/01 10:32:31;;;;;;;4.25;3.95;;;;;;;22.02;46.57;96514.44;5030487;28;20228;-89
2021/09/01 10:35:55;;;;;;;5.63;4.03;;;;;;;21.96;47.10;96507.44;5030817;28;20195;-89
2021/09/01 10:38:31;;;;;;;4.57;4.18;;;;;;;21.94;47.65;96504.22;5030376;28;20269;-89
2021/09/01 10:41:30;;;;;;;4.65;4.25;;;;;;;21.81;48.10;96507.06;5036762;23;20236;-88
2021/09/01 10:44:09;;;;;;;4.13;3.63;;;;;;;21.87;49.79;96503.56;5030016;28;20229;-89
2021/09/01 10:47:16;;;;;;;4.68;4.15;;;;;;;22.09;48.19;96498.59;5029423;28;20654;-89
2021/09/01 10:50:33;;;;;;;4.15;3.75;;;;;;;22.15;47.11;96493.25;5038724;28;20201;-89
2021/09/01 10:53:14;;;;;;;4.18;3.83;;;;;;;22.37;47.32;96488.22;5030139;28;20236;-89
2021/09/01 10:55:53;;;;;;;4.35;3.95;;;;;;;22.25;47.04;96490.06;5030083;28;20205;-89
2021/09/01 10:58:52;;;;;;;;;;;;;;;;;;;;;
2021/09/01 11:04:34;;;;;;;;;;;;;;;;;;;;;
2021/09/01 11:10:37;;;;;;;4.72;4.20;;;;;;;22.56;46.57;96484.47;4984723;28;20292;-89
2021/09/01 11:16:24;;;;;;;5.22;3.60;;;;;;;21.93;48.46;96489.56;5004476;28;20297;-89
2021/09/01 11:19:17;;;;;;;4.30;3.90;;;;;;;21.97;47.47;96493.31;5009703;28;20210;-90
2021/09/01 11:21:55;;;;;;;4.22;3.80;;;;;;;21.80;48.46;96493.16;4995578;28;20227;-90
2021/09/01 11:27:46;;;;;;;4.32;3.95;;;;;;;21.48;46.62;96495.22;4999232;28;20310;-89
2021/09/01 11:30:35;;;;;;;4.70;3.92;;;;;;;21.44;46.83;96482.78;5009868;28;20215;-89
2021/09/01 11:33:41;;;;;;;7.22;3.90;;;;;;;21.58;45.99;96477.13;4990703;28;20208;-90
2021/09/01 11:39:38;;;;;;;3.90;3.47;;;;;;;21.86;45.44;96480.97;5009264;28;20696;-88
2021/09/01 11:42:41;;;;;;;5.45;4.00;;;;;;;21.79;46.52;96483.69;5122750;23;20245;-88
2021/09/01 11:45:20;;;;;;;4.38;3.97;;;;;;;21.82;48.22;96490.31;5015757;28;20790;-91
2021/09/01 11:47:57;;;;;;;4.50;4.10;;;;;;;21.73;48.44;96486.44;5029348;28;20214;-88
2021/09/01 11:50:33;;;;;;;3.92;3.63;;;;;;;21.77;49.33;96493.59;5043549;28;20213;-89
2021/09/01 11:53:03;;;;;;;3.97;3.67;;;;;;;21.60;49.57;96497.88;5048956;28;20296;-88
2021/09/01 11:56:07;;;;;;;4.50;4.10;;;;;;;21.66;48.37;96502.25;5049075;28;20209;-88
2021/09/01 11:58:41;;;;;;;3.80;3.50;;;;;;;21.80;48.23;96498.41;5047654;28;20592;-89
2021/09/01 12:01:33;;;;;;;4.43;4.00;;;;;;;21.93;47.31;96489.56;5041601;28;20591;-89
2021/09/01 12:04:22;;;;;;;4.20;3.90;;;;;;;21.75;44.95;96503.50;5029273;28;20218;-88
2021/09/01 12:07:00;;;;;;;4.20;3.85;;;;;;;21.93;45.57;96506.09;5029167;28;20676;-89
2021/09/01 12:10:15;;;;;;;;;;;;;;;;;;;;;
2021/09/01 12:12:46;;;;;;;4.53;3.80;;;;;;;22.18;46.95;96492.78;5029206;28;20213;-89
2021/09/01 12:15:25;;;;;;;4.07;3.67;;;;;;;22.26;46.31;96502.16;5028684;28;20202;-88
2021/09/01 12:21:06;;;;;;;4.72;4.07;;;;;;;22.34;46.32;96502.59;5024805;28;20309;-88
2021/09/01 12:23:49;;;;;;;6.47;4.05;;;;;;;22.56;45.88;96502.03;5028340;28;20688;-88
2021/09/01 12:26:34;;;;;;;4.55;4.15;;;;;;;22.65;44.31;96496.22;5028415;28;20210;-88
2021/09/01 12:29:56;;;;;;;4.70;4.30;;;;;;;22.56;44.76;96491.53;5028663;28;20229;-88
2021/09/01 12:46:10;;;;;;;7.88;3.55;;;;;;;23.02;44.13;96488.06;5008331;28;20225;-88
2021/09/01 12:48:50;;;;;;;4.88;3.97;;;;;;;22.79;44.93;96482.88;5008498;28;20229;-88
2021/09/01 12:51:24;;;;;;;4.10;3.80;;;;;;;22.37;44.65;96478.53;5048182;28;20213;-87
2021/09/01 12:57:04;;;;;;;5.38;3.78;;;;;;;21.70;44.13;96477.19;5011422;28;20221;-89
2021/09/01 12:59:40;;;;;;;4.35;3.95;;;;;;;21.64;45.67;96480.69;5048224;28;20279;-89
2021/09/01 13:05:23;;;;;;;4.03;3.63;;;;;;;21.98;45.15;96473.91;5005199;28;20376;-88
2021/09/01 13:07:53;;;;;;;5.97;3.75;;;;;;;22.24;46.09;96473.53;5005472;28;20218;-87
2021/09/01 13:10:31;;;;;;;4.13;3.75;;;;;;;22.34;44.36;96471.13;5039077;28;20217;-89
2021/09/01 13:16:43;;;;;;;3.83;3.53;;;;;;;22.19;44.96;96469.97;4989223;28;20683;-91
2021/09/01 13:22:55;;;;;;;5.75;4.07;;;;;;;22.39;45.00;96471.22;4971735;28;20207;-90
2021/09/01 13:25:58;;;;;;;4.20;3.80;;;;;;;22.20;44.99;96468.94;5051764;28;20363;-88
2021/09/01 13:28:36;;;;;;;5.47;3.92;;;;;;;22.24;45.06;96463.03;5051525;28;20224;-88
2021/09/01 13:31:31;;;;;;;3.83;3.53;;;;;;;22.44;45.86;96467.13;5051346;28;20225;-88
2021/09/01 13:34:05;;;;;;;3.72;3.35;;;;;;;22.72;46.15;96468.00;5007763;28;20217;-91
2021/09/01 13:37:05;;;;;;;;;;;;;;;;;;;;;
2021/09/01 13:39:45;;;;;;;5.25;3.75;;;;;;;22.92;44.91;96449.25;5030810;28;20568;-90
2021/09/01 13:45:31;;;;;;;4.57;4.13;;;;;;;23.01;43.65;96458.38;4998778;28;20236;-90
2021/09/01 13:55:03;;;;;;;;;;;;;;;;;;;;;
2021/09/01 13:57:42;;;;;;;4.57;4.00;;;;;;;22.98;44.53;96456.22;5000908;28;20309;-90
2021/09/01 14:00:12;;;;;;;4.45;4.03;;;;;;;22.77;45.17;96450.75;5011478;28;20230;-90
2021/09/01 14:02:48;;;;;;;4.65;3.78;;;;;;;22.59;44.62;96449.06;5011301;28;20677;-90
2021/09/01 14:05:39;;;;;;;3.92;3.58;;;;;;;22.32;45.73;96452.16;5011513;28;20249;-90
2021/09/01 14:08:11;;;;;;;4.28;3.75;;;;;;;22.16;43.77;96442.38;5011180;28;20199;-91
2021/09/01 14:10:47;;;;;;;4.05;3.65;;;;;;;22.31;44.27;96434.06;5010501;28;20297;-90
2021/09/01 14:14:03;;;;;;;5.93;3.60;;;;;;;22.42;43.51;96433.25;5010885;28;20257;-90
2021/09/01 14:16:47;;;;;;;4.78;3.70;;;;;;;22.64;43.81;96436.88;5011008;28;20199;-90
2021/09/01 14:19:55;;;;;;;4.00;3.70;;;;;;;22.74;44.32;96431.00;5010783;28;20202;-91
2021/09/01 14:22:31;;;;;;;4.75;3.75;;;;;;;22.79;43.73;96430.34;5009242;28;20577;-90
2021/09/01 14:25:08;;;;;;;3.78;3.42;;;;;;;22.84;43.68;96423.38;5011222;28;20222;-90
2021/09/01 14:27:49;;;;;;;4.60;3.80;;;;;;;22.87;43.51;96428.16;5010520;28;20198;-90
2021/09/01 14:31:07;;;;;;;;;;;;;;;;;;;;;
2021/09/01 14:37:00;;;;;;;4.15;3.75;;;;;;;22.48;44.81;96419.22;4916061;29;20213;-90
2021/09/01 14:40:08;;;;;;;;;;;;;;;;;;;;;
2021/09/01 14:42:47;;;;;;;4.38;3.97;;;;;;;22.57;42.84;96415.19;4972998;28;20861;-90
2021/09/01 14:45:39;;;;;;;3.78;3.45;;;;;;;22.56;44.27;96407.53;4991191;28;20772;-90
2021/09/01 14:48:31;;;;;;;4.28;3.88;;;;;;;22.61;44.41;96416.31;4990931;28;20290;-90
2021/09/01 14:54:13;;;;;;;4.20;3.80;;;;;;;22.70;43.83;96409.69;5010565;28;20273;-90
2021/09/01 14:56:41;;;;;;;4.03;3.58;;;;;;;22.67;44.44;96410.16;5009237;28;20654;-90
2021/09/01 14:59:28;;;;;;;4.47;3.58;;;;;;;22.81;45.26;96410.72;5009566;28;20206;-90
2021/09/01 15:02:03;;;;;;;4.57;4.18;;;;;;;22.81;43.16;96402.03;4996379;28;20247;-90
2021/09/01 15:41:01;;;;;;;4.63;3.97;;;;;;;21.90;47.64;96377.25;4882405;28;20229;-84
2021/09/01 15:49:56;;;;;;;5.15;4.20;;;;;;;21.80;47.00;96379.63;4995214;28;20302;-88
2021/09/01 15:52:29;;;;;;;3.85;3.45;;;;;;;21.83;45.93;96381.78;5009633;28;20351;-89
2021/09/01 15:54:58;;;;;;;4.40;4.00;;;;;;;21.88;45.63;96379.28;5009236;28;20203;-87
2021/09/01 15:57:35;;;;;;;;;;;;;;;;;;;;;
2021/09/01 16:00:02;;;;;;;5.63;5.13;;;;;;;22.00;47.27;96375.66;5028548;28;20202;-86
2021/09/01 16:02:30;;;;;;;22.45;20.35;;;;;;;22.11;46.93;96386.38;5011654;28;20198;-86
2021/09/01 16:05:03;;;;;;;8.02;7.13;;;;;;;22.07;49.73;96382.63;5014744;28;20233;-86
2021/09/01 16:07:29;;;;;;;6.95;4.53;;;;;;;22.05;48.12;96388.91;5030485;28;20556;-85
2021/09/01 16:09:56;;;;;;;4.55;4.15;;;;;;;21.95;46.48;96379.94;5030635;28;20198;-86
2021/09/01 16:12:30;;;;;;;5.28;4.18;;;;;;;21.95;48.15;96386.00;5030809;28;20205;-85
2021/09/01 16:15:03;;;;;;;5.85;3.70;;;;;;;21.84;45.68;96381.56;5013699;28;20202;-87
2021/09/01 16:17:36;;;;;;;4.05;3.67;;;;;;;21.90;48.44;96382.47;5010435;28;20221;-86
2021/09/01 16:20:06;;;;;;;3.88;3.58;;;;;;;21.81;46.50;96386.44;5010434;28;20202;-86
2021/09/01 16:22:42;;;;;;;3.97;3.40;;;;;;;21.66;46.68;96387.69;5011382;28;20203;-86
2021/09/01 16:25:14;;;;;;;5.93;3.50;;;;;;;21.58;48.12;96385.41;5010937;28;20248;-86
2021/09/01 16:27:42;;;;;;;4.20;3.80;;;;;;;21.57;47.82;96386.41;5011897;28;20577;-86
2021/09/01 16:30:10;;;;;;;3.97;3.58;;;;;;;21.56;49.25;96390.06;5011148;28;20583;-87
2021/09/01 16:32:37;;;;;;;4.28;3.60;;;;;;;21.46;48.47;96389.03;5011154;28;20230;-87
2021/09/01 16:35:08;;;;;;;4.15;3.75;;;;;;;21.50;49.98;96392.81;5028732;28;20226;-86
2021/09/01 16:37:43;;;;;;;3.80;3.50;;;;;;;21.33;48.88;96390.03;5030520;28;20194;-87
2021/09/01 16:40:11;;;;;;;3.75;3.40;;;;;;;21.24;48.06;96394.78;5030722;28;20240;-87
2021/09/01 16:42:41;;;;;;;7.57;4.15;;;;;;;21.15;47.63;96390.06;5031941;28;20202;-85
2021/09/01 16:45:08;;;;;;;5.60;3.85;;;;;;;21.10;49.59;96392.56;5029073;28;20232;-88
2021/09/01 16:47:35;;;;;;;3.78;3.35;;;;;;;20.94;47.57;96386.91;5012822;28;20205;-86
2021/09/01 16:50:13;;;;;;;4.00;3.60;;;;;;;20.93;47.79;96380.09;5012730;28;20588;-89
2021/09/01 16:52:44;;;;;;;5.45;4.57;;;;;;;20.91;48.06;96391.78;5012584;28;20257;-88
2021/09/01 16:55:34;;;;;;;15.82;14.32;;;;;;;20.80;47.51;96392.53;5013101;28;20301;-89
2021/09/01 16:58:29;;;;;;;14.32;13.00;;;;;;;20.71;48.55;96393.84;5018033;28;20253;-89
2021/09/01 17:04:24;;;;;;;3.97;3.42;;;;;;;20.42;50.34;96384.91;5003319;28;20199;-91
2021/09/01 17:07:11;;;;;;;4.15;3.45;;;;;;;20.41;50.66;96386.75;4992945;28;20911;-89
2021/09/01 17:09:42;;;;;;;3.63;3.33;;;;;;;20.32;49.48;96393.25;4992805;28;20592;-89
2021/09/01 17:12:16;;;;;;;3.80;3.50;;;;;;;20.19;50.44;96396.81;4992688;28;20269;-89
2021/09/01 17:14:45;;;;;;;26.38;23.80;;;;;;;20.19;50.96;96404.66;4992757;28;20309;-89
2021/09/01 17:17:22;;;;;;;6.13;5.63;;;;;;;20.17;50.73;96392.81;5008616;28;20214;-89
2021/09/01 17:19:58;;;;;;;6.57;6.03;;;;;;;20.12;50.60;96397.88;5012228;28;20552;-90
2021/09/01 17:22:29;;;;;;;4.22;3.42;;;;;;;20.10;50.37;96405.94;5011587;28;20243;-88
2021/09/01 17:24:57;;;;;;;4.90;4.50;;;;;;;20.07;50.05;96405.56;5011900;28;20211;-88
2021/09/01 17:27:33;;;;;;;5.40;4.90;;;;;;;19.97;50.51;96404.28;5011834;28;20206;-88
2021/09/01 17:38:40;;;;;;;20.80;18.70;;;;;;;19.88;51.66;96408.16;5030723;28;20220;-89
2021/09/01 17:44:50;;;;;;;;;;;;;;;;;;;;;
2021/09/01 17:47:22;;;;;;;4.70;4.30;;;;;;;19.68;53.14;96412.75;5025622;28;20198;-90
2021/09/01 17:57:25;;;;;;;4.50;4.10;;;;;;;19.72;54.36;96413.94;4978124;28;20195;-89
2021/09/01 18:00:47;;;;;;;4.55;4.10;;;;;;;19.71;54.00;96416.75;4940686;28;20654;-89
2021/09/01 18:03:58;;;;;;;7.18;6.50;;;;;;;19.68;54.40;96420.59;4984216;28;20203;-90
2021/09/01 18:06:52;;;;;;;4.65;4.20;;;;;;;19.62;55.19;96424.88;4981559;28;20219;-88
2021/09/01 18:09:18;;;;;;;5.32;3.97;;;;;;;19.62;54.51;96422.25;4974870;28;20214;-88
2021/09/01 18:11:56;;;;;;;3.70;3.40;;;;;;;19.60;54.75;96428.69;5017553;28;20920;-87
2021/09/01 18:14:31;;;;;;;5.00;3.90;;;;;;;19.49;55.41;96429.34;5024322;28;20698;-90
2021/09/01 18:16:59;;;;;;;4.30;3.90;;;;;;;19.43;55.26;96424.97;5024278;28;20220;-87
2021/09/01 18:19:43;;;;;;;5.43;3.72;;;;;;;19.33;55.72;96433.25;5024594;28;20210;-88
2021/09/01 18:22:21;;;;;;;3.85;3.55;;;;;;;19.25;55.79;96429.06;5024256;28;20218;-89
2021/09/01 18:25:12;;;;;;;4.40;3.42;;;;;;;19.23;55.88;96435.53;5024783;28;20291;-89
2021/09/01 18:27:47;;;;;;;5.22;4.03;;;;;;;19.20;56.49;96430.72;5024287;28;20728;-88
2021/09/01 18:30:21;;;;;;;4.40;4.00;;;;;;;19.10;58.20;96440.81;5023691;28;20198;-88
2021/09/01 18:32:59;;;;;;;5.55;4.43;;;;;;;19.10;58.11;96435.59;5024181;28;20281;-88
2021/09/01 18:35:31;;;;;;;4.38;3.50;;;;;;;19.04;57.70;96436.44;5024126;28;20256;-88
2021/09/01 18:38:04;;;;;;;12.18;11.02;;;;;;;18.97;58.66;96439.06;5023590;28;20213;-87